sensor_id;sensor_type;location;lat;lon;timestamp;P1;durP1;ratioP1;P2;durP2;ratioP2
12129;SDS011;6128;59.340;18.040;2023-03-21T00:02:16;3.23;;;3.00;;
12129;SDS011;6128;59.340;18.040;2023-03-21T00:04:43;2.87;;;2.67;;
12129;SDS011;6128;59.340;18.040;2023-03-21T00:07:11;3.23;;;2.93;;
12129;SDS011;6128;59.340;18.040;2023-03-21T00:09:38;2.67;;;2.47;;
12129;SDS011;6128;59.340;18.040;2023-03-21T00:12:05;2.83;;;2.63;;
12129;SDS011;6128;59.340;18.040;2023-03-21T00:14:34;3.30;;;3.00;;
12129;SDS011;6128;59.340;18.040;2023-03-21T00:17:02;3.30;;;2.97;;
12129;SDS011;6128;59.340;18.040;2023-03-21T00:19:30;3.67;;;2.70;;
12129;SDS011;6128;59.340;18.040;2023-03-21T00:22:02;3.07;;;2.70;;
12129;SDS011;6128;59.340;18.040;2023-03-21T00:24:30;2.87;;;2.37;;
12129;SDS011;6128;59.340;18.040;2023-03-21T00:26:57;5.93;;;2.47;;
12129;SDS011;6128;59.340;18.040;2023-03-21T00:29:25;2.77;;;2.23;;
12129;SDS011;6128;59.340;18.040;2023-03-21T00:31:52;5.20;;;2.63;;
12129;SDS011;6128;59.340;18.040;2023-03-21T00:34:19;2.90;;;2.03;;
12129;SDS011;6128;59.340;18.040;2023-03-21T00:36:47;4.20;;;1.70;;
12129;SDS011;6128;59.340;18.040;2023-03-21T00:39:15;3.77;;;2.20;;
12129;SDS011;6128;59.340;18.040;2023-03-21T00:41:42;2.60;;;1.93;;
12129;SDS011;6128;59.340;18.040;2023-03-21T00:44:09;3.13;;;1.97;;
12129;SDS011;6128;59.340;18.040;2023-03-21T00:46:39;3.50;;;2.17;;
12129;SDS011;6128;59.340;18.040;2023-03-21T00:49:07;2.20;;;2.00;;
12129;SDS011;6128;59.340;18.040;2023-03-21T00:51:34;5.50;;;2.47;;
12129;SDS011;6128;59.340;18.040;2023-03-21T00:54:03;2.70;;;2.17;;
12129;SDS011;6128;59.340;18.040;2023-03-21T00:56:31;5.00;;;2.50;;
12129;SDS011;6128;59.340;18.040;2023-03-21T00:58:59;1.70;;;1.60;;
12129;SDS011;6128;59.340;18.040;2023-03-21T01:01:26;2.57;;;1.87;;
12129;SDS011;6128;59.340;18.040;2023-03-21T01:03:56;2.27;;;1.70;;
12129;SDS011;6128;59.340;18.040;2023-03-21T01:06:29;2.37;;;2.10;;
12129;SDS011;6128;59.340;18.040;2023-03-21T01:08:57;4.83;;;2.40;;
12129;SDS011;6128;59.340;18.040;2023-03-21T01:11:26;5.00;;;2.50;;
12129;SDS011;6128;59.340;18.040;2023-03-21T01:13:54;4.63;;;3.20;;
12129;SDS011;6128;59.340;18.040;2023-03-21T01:16:21;3.50;;;3.20;;
12129;SDS011;6128;59.340;18.040;2023-03-21T01:18:49;4.20;;;2.90;;
12129;SDS011;6128;59.340;18.040;2023-03-21T01:21:16;4.27;;;3.83;;
12129;SDS011;6128;59.340;18.040;2023-03-21T01:23:44;4.17;;;3.47;;
12129;SDS011;6128;59.340;18.040;2023-03-21T01:26:11;3.60;;;3.13;;
12129;SDS011;6128;59.340;18.040;2023-03-21T01:28:41;7.30;;;3.37;;
12129;SDS011;6128;59.340;18.040;2023-03-21T01:31:10;3.63;;;3.33;;
12129;SDS011;6128;59.340;18.040;2023-03-21T01:33:38;3.73;;;3.20;;
12129;SDS011;6128;59.340;18.040;2023-03-21T01:36:05;3.27;;;3.00;;
12129;SDS011;6128;59.340;18.040;2023-03-21T01:38:33;3.27;;;2.97;;
12129;SDS011;6128;59.340;18.040;2023-03-21T01:41:00;3.40;;;3.10;;
12129;SDS011;6128;59.340;18.040;2023-03-21T01:43:28;3.60;;;3.30;;
12129;SDS011;6128;59.340;18.040;2023-03-21T01:46:07;5.63;;;3.40;;
12129;SDS011;6128;59.340;18.040;2023-03-21T01:48:55;3.83;;;3.43;;
12129;SDS011;6128;59.340;18.040;2023-03-21T01:51:25;3.53;;;3.23;;
12129;SDS011;6128;59.340;18.040;2023-03-21T01:53:54;3.10;;;2.80;;
12129;SDS011;6128;59.340;18.040;2023-03-21T01:56:23;3.30;;;3.00;;
12129;SDS011;6128;59.340;18.040;2023-03-21T01:58:55;7.20;;;3.67;;
12129;SDS011;6128;59.340;18.040;2023-03-21T02:01:29;6.90;;;3.13;;
12129;SDS011;6128;59.340;18.040;2023-03-21T02:03:59;9.73;;;3.03;;
12129;SDS011;6128;59.340;18.040;2023-03-21T02:06:30;8.50;;;3.67;;
12129;SDS011;6128;59.340;18.040;2023-03-21T02:09:03;8.27;;;2.60;;
12129;SDS011;6128;59.340;18.040;2023-03-21T02:11:34;4.30;;;2.83;;
12129;SDS011;6128;59.340;18.040;2023-03-21T02:14:02;3.73;;;2.30;;
12129;SDS011;6128;59.340;18.040;2023-03-21T02:16:35;3.30;;;2.67;;
12129;SDS011;6128;59.340;18.040;2023-03-21T02:25:16;8.27;;;2.90;;
12129;SDS011;6128;59.340;18.040;2023-03-21T02:27:58;17.10;;;3.73;;
12129;SDS011;6128;59.340;18.040;2023-03-21T02:30:42;15.30;;;3.60;;
12129;SDS011;6128;59.340;18.040;2023-03-21T02:33:34;3.30;;;2.60;;
12129;SDS011;6128;59.340;18.040;2023-03-21T02:36:27;12.13;;;3.03;;
12129;SDS011;6128;59.340;18.040;2023-03-21T02:39:06;5.33;;;2.67;;
12129;SDS011;6128;59.340;18.040;2023-03-21T02:41:39;44.03;;;4.30;;
12129;SDS011;6128;59.340;18.040;2023-03-21T02:44:15;6.70;;;3.20;;
12129;SDS011;6128;59.340;18.040;2023-03-21T02:46:49;8.73;;;2.50;;
12129;SDS011;6128;59.340;18.040;2023-03-21T02:49:21;3.03;;;2.40;;
12129;SDS011;6128;59.340;18.040;2023-03-21T02:51:53;2.57;;;2.20;;
12129;SDS011;6128;59.340;18.040;2023-03-21T02:54:27;3.10;;;2.80;;
12129;SDS011;6128;59.340;18.040;2023-03-21T02:56:56;3.57;;;2.60;;
12129;SDS011;6128;59.340;18.040;2023-03-21T02:59:25;2.97;;;2.70;;
12129;SDS011;6128;59.340;18.040;2023-03-21T03:01:54;5.03;;;2.80;;
12129;SDS011;6128;59.340;18.040;2023-03-21T03:04:22;14.73;;;3.13;;
12129;SDS011;6128;59.340;18.040;2023-03-21T03:07:08;7.83;;;2.90;;
12129;SDS011;6128;59.340;18.040;2023-03-21T03:09:50;8.13;;;3.20;;
12129;SDS011;6128;59.340;18.040;2023-03-21T03:12:26;5.80;;;3.13;;
12129;SDS011;6128;59.340;18.040;2023-03-21T03:15:04;8.70;;;2.50;;
12129;SDS011;6128;59.340;18.040;2023-03-21T03:17:45;5.80;;;2.90;;
12129;SDS011;6128;59.340;18.040;2023-03-21T03:20:19;42.37;;;4.80;;
12129;SDS011;6128;59.340;18.040;2023-03-21T03:22:54;8.70;;;3.17;;
12129;SDS011;6128;59.340;18.040;2023-03-21T03:25:31;30.03;;;4.17;;
12129;SDS011;6128;59.340;18.040;2023-03-21T03:28:04;13.13;;;3.03;;
12129;SDS011;6128;59.340;18.040;2023-03-21T03:30:32;20.67;;;3.47;;
12129;SDS011;6128;59.340;18.040;2023-03-21T03:33:02;10.83;;;3.20;;
12129;SDS011;6128;59.340;18.040;2023-03-21T03:35:31;24.87;;;4.23;;
12129;SDS011;6128;59.340;18.040;2023-03-21T03:37:59;40.17;;;5.30;;
12129;SDS011;6128;59.340;18.040;2023-03-21T03:40:30;16.77;;;3.10;;
12129;SDS011;6128;59.340;18.040;2023-03-21T03:43:06;17.43;;;3.40;;
12129;SDS011;6128;59.340;18.040;2023-03-21T03:45:39;3.03;;;2.20;;
12129;SDS011;6128;59.340;18.040;2023-03-21T03:48:13;4.27;;;2.27;;
12129;SDS011;6128;59.340;18.040;2023-03-21T03:50:46;6.67;;;2.30;;
12129;SDS011;6128;59.340;18.040;2023-03-21T03:53:18;5.60;;;2.00;;
12129;SDS011;6128;59.340;18.040;2023-03-21T03:55:50;2.37;;;2.17;;
12129;SDS011;6128;59.340;18.040;2023-03-21T03:58:20;2.80;;;2.33;;
12129;SDS011;6128;59.340;18.040;2023-03-21T04:00:49;2.47;;;2.27;;
12129;SDS011;6128;59.340;18.040;2023-03-21T04:03:16;5.03;;;2.47;;
12129;SDS011;6128;59.340;18.040;2023-03-21T04:05:44;5.07;;;2.23;;
12129;SDS011;6128;59.340;18.040;2023-03-21T04:08:11;2.77;;;2.37;;
12129;SDS011;6128;59.340;18.040;2023-03-21T04:10:39;6.10;;;2.57;;
12129;SDS011;6128;59.340;18.040;2023-03-21T04:13:08;4.03;;;2.20;;
12129;SDS011;6128;59.340;18.040;2023-03-21T04:15:36;4.27;;;2.33;;
12129;SDS011;6128;59.340;18.040;2023-03-21T04:18:03;6.00;;;2.70;;
12129;SDS011;6128;59.340;18.040;2023-03-21T04:20:30;2.97;;;2.77;;
12129;SDS011;6128;59.340;18.040;2023-03-21T04:22:58;2.47;;;2.27;;
12129;SDS011;6128;59.340;18.040;2023-03-21T04:25:25;6.07;;;2.50;;
12129;SDS011;6128;59.340;18.040;2023-03-21T04:27:53;10.87;;;3.07;;
12129;SDS011;6128;59.340;18.040;2023-03-21T04:30:22;18.90;;;3.13;;
12129;SDS011;6128;59.340;18.040;2023-03-21T04:32:50;18.17;;;3.90;;
12129;SDS011;6128;59.340;18.040;2023-03-21T04:35:21;6.23;;;2.80;;
12129;SDS011;6128;59.340;18.040;2023-03-21T04:37:49;5.07;;;2.40;;
12129;SDS011;6128;59.340;18.040;2023-03-21T04:40:17;2.83;;;2.63;;
12129;SDS011;6128;59.340;18.040;2023-03-21T04:42:44;2.97;;;2.70;;
12129;SDS011;6128;59.340;18.040;2023-03-21T04:45:13;2.50;;;2.30;;
12129;SDS011;6128;59.340;18.040;2023-03-21T04:47:43;3.27;;;2.73;;
12129;SDS011;6128;59.340;18.040;2023-03-21T04:50:10;11.03;;;4.77;;
12129;SDS011;6128;59.340;18.040;2023-03-21T04:52:38;10.67;;;3.50;;
12129;SDS011;6128;59.340;18.040;2023-03-21T04:55:06;3.30;;;3.00;;
12129;SDS011;6128;59.340;18.040;2023-03-21T04:57:34;5.33;;;2.90;;
12129;SDS011;6128;59.340;18.040;2023-03-21T05:00:03;8.53;;;3.47;;
12129;SDS011;6128;59.340;18.040;2023-03-21T05:02:35;3.73;;;3.30;;
12129;SDS011;6128;59.340;18.040;2023-03-21T05:05:04;8.27;;;3.30;;
12129;SDS011;6128;59.340;18.040;2023-03-21T05:07:31;18.77;;;3.50;;
12129;SDS011;6128;59.340;18.040;2023-03-21T05:09:58;13.37;;;3.80;;
12129;SDS011;6128;59.340;18.040;2023-03-21T05:12:28;19.10;;;3.23;;
12129;SDS011;6128;59.340;18.040;2023-03-21T05:14:56;3.47;;;2.50;;
12129;SDS011;6128;59.340;18.040;2023-03-21T05:17:23;3.57;;;3.27;;
12129;SDS011;6128;59.340;18.040;2023-03-21T05:19:52;3.43;;;3.13;;
12129;SDS011;6128;59.340;18.040;2023-03-21T05:22:22;7.00;;;3.37;;
12129;SDS011;6128;59.340;18.040;2023-03-21T05:24:50;9.27;;;3.13;;
12129;SDS011;6128;59.340;18.040;2023-03-21T05:27:19;3.83;;;3.03;;
12129;SDS011;6128;59.340;18.040;2023-03-21T05:30:00;15.80;;;3.10;;
12129;SDS011;6128;59.340;18.040;2023-03-21T05:32:27;11.17;;;3.63;;
12129;SDS011;6128;59.340;18.040;2023-03-21T05:34:55;12.53;;;3.47;;
12129;SDS011;6128;59.340;18.040;2023-03-21T05:37:23;7.77;;;3.47;;
12129;SDS011;6128;59.340;18.040;2023-03-21T05:39:51;6.33;;;3.50;;
12129;SDS011;6128;59.340;18.040;2023-03-21T05:42:18;5.90;;;3.10;;
12129;SDS011;6128;59.340;18.040;2023-03-21T05:44:46;6.83;;;3.30;;
12129;SDS011;6128;59.340;18.040;2023-03-21T05:47:13;3.93;;;3.10;;
12129;SDS011;6128;59.340;18.040;2023-03-21T05:49:41;3.60;;;3.30;;
12129;SDS011;6128;59.340;18.040;2023-03-21T05:52:09;5.13;;;3.00;;
12129;SDS011;6128;59.340;18.040;2023-03-21T05:54:38;7.73;;;3.00;;
12129;SDS011;6128;59.340;18.040;2023-03-21T05:57:05;12.53;;;3.40;;
12129;SDS011;6128;59.340;18.040;2023-03-21T05:59:32;5.20;;;3.13;;
12129;SDS011;6128;59.340;18.040;2023-03-21T06:02:00;3.17;;;2.77;;
12129;SDS011;6128;59.340;18.040;2023-03-21T06:04:27;3.60;;;2.80;;
12129;SDS011;6128;59.340;18.040;2023-03-21T06:06:54;4.83;;;3.00;;
12129;SDS011;6128;59.340;18.040;2023-03-21T06:09:21;8.17;;;3.33;;
12129;SDS011;6128;59.340;18.040;2023-03-21T06:11:52;7.90;;;3.00;;
12129;SDS011;6128;59.340;18.040;2023-03-21T06:14:21;7.00;;;3.80;;
12129;SDS011;6128;59.340;18.040;2023-03-21T06:16:49;13.90;;;3.10;;
12129;SDS011;6128;59.340;18.040;2023-03-21T06:19:18;6.77;;;3.30;;
12129;SDS011;6128;59.340;18.040;2023-03-21T06:21:46;4.30;;;3.90;;
12129;SDS011;6128;59.340;18.040;2023-03-21T06:24:13;5.60;;;4.10;;
12129;SDS011;6128;59.340;18.040;2023-03-21T06:26:41;9.47;;;3.57;;
12129;SDS011;6128;59.340;18.040;2023-03-21T06:29:10;5.93;;;3.87;;
12129;SDS011;6128;59.340;18.040;2023-03-21T06:31:37;7.73;;;3.83;;
12129;SDS011;6128;59.340;18.040;2023-03-21T06:34:04;4.17;;;3.80;;
12129;SDS011;6128;59.340;18.040;2023-03-21T06:36:32;4.10;;;3.70;;
12129;SDS011;6128;59.340;18.040;2023-03-21T06:39:01;6.57;;;4.30;;
12129;SDS011;6128;59.340;18.040;2023-03-21T06:41:31;4.20;;;3.47;;
12129;SDS011;6128;59.340;18.040;2023-03-21T06:43:58;4.27;;;3.90;;
12129;SDS011;6128;59.340;18.040;2023-03-21T06:46:27;5.03;;;4.03;;
12129;SDS011;6128;59.340;18.040;2023-03-21T06:48:54;3.60;;;3.30;;
12129;SDS011;6128;59.340;18.040;2023-03-21T06:51:22;4.50;;;4.00;;
12129;SDS011;6128;59.340;18.040;2023-03-21T06:53:49;9.30;;;4.40;;
12129;SDS011;6128;59.340;18.040;2023-03-21T06:56:16;6.97;;;3.90;;
12129;SDS011;6128;59.340;18.040;2023-03-21T06:58:43;5.17;;;3.40;;
12129;SDS011;6128;59.340;18.040;2023-03-21T07:01:11;4.43;;;3.83;;
12129;SDS011;6128;59.340;18.040;2023-03-21T07:03:41;3.80;;;3.40;;
12129;SDS011;6128;59.340;18.040;2023-03-21T07:06:09;5.80;;;3.57;;
12129;SDS011;6128;59.340;18.040;2023-03-21T07:08:37;5.60;;;2.83;;
12129;SDS011;6128;59.340;18.040;2023-03-21T07:11:08;3.80;;;3.00;;
12129;SDS011;6128;59.340;18.040;2023-03-21T07:13:35;3.13;;;2.83;;
12129;SDS011;6128;59.340;18.040;2023-03-21T07:16:02;4.50;;;2.80;;
12129;SDS011;6128;59.340;18.040;2023-03-21T07:18:31;7.30;;;2.17;;
12129;SDS011;6128;59.340;18.040;2023-03-21T07:21:00;2.67;;;2.20;;
12129;SDS011;6128;59.340;18.040;2023-03-21T07:23:27;2.20;;;2.00;;
12129;SDS011;6128;59.340;18.040;2023-03-21T07:25:55;1.90;;;1.80;;
12129;SDS011;6128;59.340;18.040;2023-03-21T07:28:22;2.40;;;2.20;;
12129;SDS011;6128;59.340;18.040;2023-03-21T07:30:53;2.10;;;1.90;;
12129;SDS011;6128;59.340;18.040;2023-03-21T07:33:21;2.83;;;2.30;;
12129;SDS011;6128;59.340;18.040;2023-03-21T07:35:52;2.33;;;2.10;;
12129;SDS011;6128;59.340;18.040;2023-03-21T07:38:23;3.60;;;2.30;;
12129;SDS011;6128;59.340;18.040;2023-03-21T07:40:55;2.60;;;2.20;;
12129;SDS011;6128;59.340;18.040;2023-03-21T07:43:24;2.67;;;2.20;;
12129;SDS011;6128;59.340;18.040;2023-03-21T07:45:55;3.27;;;2.30;;
12129;SDS011;6128;59.340;18.040;2023-03-21T07:48:22;3.43;;;2.67;;
12129;SDS011;6128;59.340;18.040;2023-03-21T07:50:50;4.00;;;3.23;;
12129;SDS011;6128;59.340;18.040;2023-03-21T07:53:17;5.00;;;2.87;;
12129;SDS011;6128;59.340;18.040;2023-03-21T07:55:49;3.23;;;2.60;;
12129;SDS011;6128;59.340;18.040;2023-03-21T07:58:17;3.73;;;3.37;;
12129;SDS011;6128;59.340;18.040;2023-03-21T08:00:44;2.60;;;2.40;;
12129;SDS011;6128;59.340;18.040;2023-03-21T08:03:14;2.80;;;2.60;;
12129;SDS011;6128;59.340;18.040;2023-03-21T08:05:41;2.57;;;2.37;;
12129;SDS011;6128;59.340;18.040;2023-03-21T08:08:09;3.53;;;2.30;;
12129;SDS011;6128;59.340;18.040;2023-03-21T08:10:36;2.53;;;2.33;;
12129;SDS011;6128;59.340;18.040;2023-03-21T08:13:05;2.00;;;1.90;;
12129;SDS011;6128;59.340;18.040;2023-03-21T08:15:32;2.30;;;2.20;;
12129;SDS011;6128;59.340;18.040;2023-03-21T08:17:59;15.07;;;3.47;;
12129;SDS011;6128;59.340;18.040;2023-03-21T08:20:26;2.13;;;1.90;;
12129;SDS011;6128;59.340;18.040;2023-03-21T08:22:54;1.90;;;1.80;;
12129;SDS011;6128;59.340;18.040;2023-03-21T08:25:21;2.27;;;2.03;;
12129;SDS011;6128;59.340;18.040;2023-03-21T08:27:49;3.07;;;1.67;;
12129;SDS011;6128;59.340;18.040;2023-03-21T08:30:19;2.80;;;1.87;;
12129;SDS011;6128;59.340;18.040;2023-03-21T08:32:47;3.77;;;1.80;;
12129;SDS011;6128;59.340;18.040;2023-03-21T08:35:17;3.87;;;1.90;;
12129;SDS011;6128;59.340;18.040;2023-03-21T08:37:45;2.13;;;1.93;;
12129;SDS011;6128;59.340;18.040;2023-03-21T08:40:13;2.20;;;1.87;;
12129;SDS011;6128;59.340;18.040;2023-03-21T08:42:41;2.27;;;1.60;;
12129;SDS011;6128;59.340;18.040;2023-03-21T08:45:10;1.57;;;1.10;;
12129;SDS011;6128;59.340;18.040;2023-03-21T08:47:40;5.30;;;1.47;;
12129;SDS011;6128;59.340;18.040;2023-03-21T08:50:08;0.93;;;0.93;;
12129;SDS011;6128;59.340;18.040;2023-03-21T08:52:38;6.63;;;1.37;;
12129;SDS011;6128;59.340;18.040;2023-03-21T08:55:06;5.30;;;1.33;;
12129;SDS011;6128;59.340;18.040;2023-03-21T08:57:33;2.13;;;1.20;;
12129;SDS011;6128;59.340;18.040;2023-03-21T09:00:00;6.63;;;1.40;;
12129;SDS011;6128;59.340;18.040;2023-03-21T09:02:35;2.00;;;0.90;;
12129;SDS011;6128;59.340;18.040;2023-03-21T09:05:04;2.80;;;1.20;;
12129;SDS011;6128;59.340;18.040;2023-03-21T09:07:32;2.80;;;1.00;;
12129;SDS011;6128;59.340;18.040;2023-03-21T09:10:06;3.27;;;1.07;;
12129;SDS011;6128;59.340;18.040;2023-03-21T09:12:37;7.60;;;1.43;;
12129;SDS011;6128;59.340;18.040;2023-03-21T09:15:06;3.57;;;1.10;;
12129;SDS011;6128;59.340;18.040;2023-03-21T09:17:34;3.17;;;1.00;;
12129;SDS011;6128;59.340;18.040;2023-03-21T09:20:08;3.43;;;0.97;;
12129;SDS011;6128;59.340;18.040;2023-03-21T09:22:42;9.00;;;1.60;;
12129;SDS011;6128;59.340;18.040;2023-03-21T09:25:11;6.87;;;1.20;;
12129;SDS011;6128;59.340;18.040;2023-03-21T09:27:41;3.27;;;0.90;;
12129;SDS011;6128;59.340;18.040;2023-03-21T09:30:10;5.00;;;0.83;;
12129;SDS011;6128;59.340;18.040;2023-03-21T09:32:38;2.97;;;1.00;;
12129;SDS011;6128;59.340;18.040;2023-03-21T09:35:07;1.57;;;1.07;;
12129;SDS011;6128;59.340;18.040;2023-03-21T09:37:39;2.63;;;1.10;;
12129;SDS011;6128;59.340;18.040;2023-03-21T09:40:09;1.23;;;0.87;;
12129;SDS011;6128;59.340;18.040;2023-03-21T09:42:44;23.80;;;3.53;;
12129;SDS011;6128;59.340;18.040;2023-03-21T09:45:25;6.70;;;1.33;;
12129;SDS011;6128;59.340;18.040;2023-03-21T09:48:00;4.07;;;1.03;;
12129;SDS011;6128;59.340;18.040;2023-03-21T09:50:30;4.07;;;0.90;;
12129;SDS011;6128;59.340;18.040;2023-03-21T09:53:00;11.67;;;1.40;;
12129;SDS011;6128;59.340;18.040;2023-03-21T09:55:32;13.90;;;2.50;;
12129;SDS011;6128;59.340;18.040;2023-03-21T09:58:03;2.37;;;0.80;;
12129;SDS011;6128;59.340;18.040;2023-03-21T10:00:34;6.63;;;1.57;;
12129;SDS011;6128;59.340;18.040;2023-03-21T10:03:04;7.77;;;1.33;;
12129;SDS011;6128;59.340;18.040;2023-03-21T10:05:42;4.77;;;0.97;;
12129;SDS011;6128;59.340;18.040;2023-03-21T10:08:12;10.40;;;1.53;;
12129;SDS011;6128;59.340;18.040;2023-03-21T10:10:44;6.87;;;1.40;;
12129;SDS011;6128;59.340;18.040;2023-03-21T10:13:14;3.93;;;0.70;;
12129;SDS011;6128;59.340;18.040;2023-03-21T10:15:46;0.87;;;0.50;;
12129;SDS011;6128;59.340;18.040;2023-03-21T10:18:17;2.17;;;0.30;;
12129;SDS011;6128;59.340;18.040;2023-03-21T10:20:50;1.97;;;0.40;;
12129;SDS011;6128;59.340;18.040;2023-03-21T10:23:21;0.17;;;0.10;;
12129;SDS011;6128;59.340;18.040;2023-03-21T10:25:53;2.00;;;0.50;;
12129;SDS011;6128;59.340;18.040;2023-03-21T10:28:23;2.30;;;0.77;;
12129;SDS011;6128;59.340;18.040;2023-03-21T10:30:53;3.13;;;0.40;;
12129;SDS011;6128;59.340;18.040;2023-03-21T10:33:24;2.00;;;0.50;;
12129;SDS011;6128;59.340;18.040;2023-03-21T10:35:55;1.60;;;0.20;;
12129;SDS011;6128;59.340;18.040;2023-03-21T10:38:25;1.53;;;0.57;;
12129;SDS011;6128;59.340;18.040;2023-03-21T10:40:52;7.27;;;0.87;;
12129;SDS011;6128;59.340;18.040;2023-03-21T10:43:30;0.97;;;0.67;;
12129;SDS011;6128;59.340;18.040;2023-03-21T10:46:06;2.57;;;0.50;;
12129;SDS011;6128;59.340;18.040;2023-03-21T10:48:37;13.63;;;1.67;;
12129;SDS011;6128;59.340;18.040;2023-03-21T10:51:07;2.00;;;0.53;;
12129;SDS011;6128;59.340;18.040;2023-03-21T10:53:37;7.53;;;0.63;;
12129;SDS011;6128;59.340;18.040;2023-03-21T10:56:07;3.80;;;0.90;;
12129;SDS011;6128;59.340;18.040;2023-03-21T10:58:37;1.97;;;0.40;;
12129;SDS011;6128;59.340;18.040;2023-03-21T11:01:09;1.50;;;0.50;;
12129;SDS011;6128;59.340;18.040;2023-03-21T11:03:40;7.17;;;1.00;;
12129;SDS011;6128;59.340;18.040;2023-03-21T11:06:13;3.50;;;0.87;;
12129;SDS011;6128;59.340;18.040;2023-03-21T11:08:43;11.00;;;1.17;;
12129;SDS011;6128;59.340;18.040;2023-03-21T11:11:18;1.70;;;0.50;;
12129;SDS011;6128;59.340;18.040;2023-03-21T11:13:47;1.43;;;0.90;;
12129;SDS011;6128;59.340;18.040;2023-03-21T11:16:22;2.93;;;0.87;;
12129;SDS011;6128;59.340;18.040;2023-03-21T11:18:55;2.13;;;0.30;;
12129;SDS011;6128;59.340;18.040;2023-03-21T11:21:26;2.10;;;0.67;;
12129;SDS011;6128;59.340;18.040;2023-03-21T11:24:01;4.63;;;0.33;;
12129;SDS011;6128;59.340;18.040;2023-03-21T11:26:30;2.17;;;0.43;;
12129;SDS011;6128;59.340;18.040;2023-03-21T11:29:05;3.53;;;0.60;;
12129;SDS011;6128;59.340;18.040;2023-03-21T11:31:37;2.00;;;0.30;;
12129;SDS011;6128;59.340;18.040;2023-03-21T11:34:06;14.63;;;1.80;;
12129;SDS011;6128;59.340;18.040;2023-03-21T11:36:36;2.87;;;0.40;;
12129;SDS011;6128;59.340;18.040;2023-03-21T11:39:12;4.00;;;0.33;;
12129;SDS011;6128;59.340;18.040;2023-03-21T11:41:46;1.33;;;0.20;;
12129;SDS011;6128;59.340;18.040;2023-03-21T11:44:24;2.30;;;0.30;;
12129;SDS011;6128;59.340;18.040;2023-03-21T11:46:53;3.23;;;0.53;;
12129;SDS011;6128;59.340;18.040;2023-03-21T11:49:25;2.93;;;0.90;;
12129;SDS011;6128;59.340;18.040;2023-03-21T11:51:59;3.70;;;0.60;;
12129;SDS011;6128;59.340;18.040;2023-03-21T11:54:47;11.20;;;1.20;;
12129;SDS011;6128;59.340;18.040;2023-03-21T11:57:31;3.83;;;0.70;;
12129;SDS011;6128;59.340;18.040;2023-03-21T12:00:06;4.87;;;0.77;;
12129;SDS011;6128;59.340;18.040;2023-03-21T12:02:49;1.10;;;0.60;;
12129;SDS011;6128;59.340;18.040;2023-03-21T12:05:34;11.13;;;1.77;;
12129;SDS011;6128;59.340;18.040;2023-03-21T12:08:08;8.10;;;1.00;;
12129;SDS011;6128;59.340;18.040;2023-03-21T12:10:46;3.17;;;0.43;;
12129;SDS011;6128;59.340;18.040;2023-03-21T12:13:26;3.33;;;0.70;;
12129;SDS011;6128;59.340;18.040;2023-03-21T12:16:14;0.60;;;0.30;;
12129;SDS011;6128;59.340;18.040;2023-03-21T12:18:58;3.77;;;1.10;;
12129;SDS011;6128;59.340;18.040;2023-03-21T12:21:47;5.43;;;0.80;;
12129;SDS011;6128;59.340;18.040;2023-03-21T12:24:27;0.70;;;0.40;;
12129;SDS011;6128;59.340;18.040;2023-03-21T12:26:58;2.93;;;0.77;;
12129;SDS011;6128;59.340;18.040;2023-03-21T12:29:39;0.97;;;0.37;;
12129;SDS011;6128;59.340;18.040;2023-03-21T12:32:24;1.00;;;0.50;;
12129;SDS011;6128;59.340;18.040;2023-03-21T12:35:12;3.93;;;0.43;;
12129;SDS011;6128;59.340;18.040;2023-03-21T12:37:52;1.97;;;0.53;;
12129;SDS011;6128;59.340;18.040;2023-03-21T12:40:37;1.97;;;0.30;;
12129;SDS011;6128;59.340;18.040;2023-03-21T12:43:30;10.57;;;1.90;;
12129;SDS011;6128;59.340;18.040;2023-03-21T12:46:12;3.53;;;0.40;;
12129;SDS011;6128;59.340;18.040;2023-03-21T12:48:45;2.67;;;0.50;;
12129;SDS011;6128;59.340;18.040;2023-03-21T12:51:17;13.53;;;1.87;;
12129;SDS011;6128;59.340;18.040;2023-03-21T12:53:52;3.60;;;0.40;;
12129;SDS011;6128;59.340;18.040;2023-03-21T12:56:27;1.97;;;0.37;;
12129;SDS011;6128;59.340;18.040;2023-03-21T12:58:58;6.07;;;1.23;;
12129;SDS011;6128;59.340;18.040;2023-03-21T13:01:29;4.63;;;0.70;;
12129;SDS011;6128;59.340;18.040;2023-03-21T13:04:09;4.73;;;0.83;;
12129;SDS011;6128;59.340;18.040;2023-03-21T13:06:51;8.80;;;1.60;;
12129;SDS011;6128;59.340;18.040;2023-03-21T13:09:21;3.73;;;0.60;;
12129;SDS011;6128;59.340;18.040;2023-03-21T13:11:55;1.17;;;0.20;;
12129;SDS011;6128;59.340;18.040;2023-03-21T13:14:32;2.40;;;0.40;;
12129;SDS011;6128;59.340;18.040;2023-03-21T13:17:05;3.07;;;0.50;;
12129;SDS011;6128;59.340;18.040;2023-03-21T13:19:39;2.37;;;0.50;;
12129;SDS011;6128;59.340;18.040;2023-03-21T13:22:10;11.97;;;1.63;;
12129;SDS011;6128;59.340;18.040;2023-03-21T13:24:47;2.20;;;0.40;;
12129;SDS011;6128;59.340;18.040;2023-03-21T13:27:18;3.00;;;0.90;;
12129;SDS011;6128;59.340;18.040;2023-03-21T13:29:52;1.27;;;0.40;;
12129;SDS011;6128;59.340;18.040;2023-03-21T13:32:26;4.17;;;0.90;;
12129;SDS011;6128;59.340;18.040;2023-03-21T13:34:55;7.47;;;1.43;;
12129;SDS011;6128;59.340;18.040;2023-03-21T13:37:25;3.23;;;0.30;;
12129;SDS011;6128;59.340;18.040;2023-03-21T13:40:02;14.53;;;1.67;;
12129;SDS011;6128;59.340;18.040;2023-03-21T13:42:41;2.17;;;0.40;;
12129;SDS011;6128;59.340;18.040;2023-03-21T13:45:11;7.93;;;0.90;;
12129;SDS011;6128;59.340;18.040;2023-03-21T13:47:52;2.93;;;0.63;;
12129;SDS011;6128;59.340;18.040;2023-03-21T13:50:22;7.00;;;0.70;;
12129;SDS011;6128;59.340;18.040;2023-03-21T13:58:59;2.37;;;0.30;;
12129;SDS011;6128;59.340;18.040;2023-03-21T14:04:24;1.00;;;0.20;;
12129;SDS011;6128;59.340;18.040;2023-03-21T14:06:53;0.67;;;0.53;;
12129;SDS011;6128;59.340;18.040;2023-03-21T14:09:24;5.33;;;0.67;;
12129;SDS011;6128;59.340;18.040;2023-03-21T14:11:55;1.70;;;0.40;;
12129;SDS011;6128;59.340;18.040;2023-03-21T14:14:25;3.33;;;0.50;;
12129;SDS011;6128;59.340;18.040;2023-03-21T14:16:56;1.07;;;0.40;;
12129;SDS011;6128;59.340;18.040;2023-03-21T14:19:27;5.30;;;0.60;;
12129;SDS011;6128;59.340;18.040;2023-03-21T14:21:56;3.30;;;0.40;;
12129;SDS011;6128;59.340;18.040;2023-03-21T14:24:24;1.30;;;0.30;;
12129;SDS011;6128;59.340;18.040;2023-03-21T14:26:52;1.40;;;0.40;;
12129;SDS011;6128;59.340;18.040;2023-03-21T14:29:22;4.63;;;0.50;;
12129;SDS011;6128;59.340;18.040;2023-03-21T14:31:55;3.20;;;0.47;;
12129;SDS011;6128;59.340;18.040;2023-03-21T14:34:24;0.53;;;0.23;;
12129;SDS011;6128;59.340;18.040;2023-03-21T14:36:53;7.30;;;0.90;;
12129;SDS011;6128;59.340;18.040;2023-03-21T14:39:21;9.47;;;1.47;;
12129;SDS011;6128;59.340;18.040;2023-03-21T14:41:52;7.93;;;0.80;;
12129;SDS011;6128;59.340;18.040;2023-03-21T14:44:21;12.87;;;1.93;;
12129;SDS011;6128;59.340;18.040;2023-03-21T14:46:59;22.33;;;8.27;;
12129;SDS011;6128;59.340;18.040;2023-03-21T14:49:28;2.53;;;0.70;;
12129;SDS011;6128;59.340;18.040;2023-03-21T14:51:57;3.00;;;0.50;;
12129;SDS011;6128;59.340;18.040;2023-03-21T14:54:27;5.30;;;0.60;;
12129;SDS011;6128;59.340;18.040;2023-03-21T14:56:56;20.70;;;2.67;;
12129;SDS011;6128;59.340;18.040;2023-03-21T14:59:28;1.03;;;0.27;;
12129;SDS011;6128;59.340;18.040;2023-03-21T15:02:02;3.07;;;0.63;;
12129;SDS011;6128;59.340;18.040;2023-03-21T15:04:37;2.57;;;0.50;;
12129;SDS011;6128;59.340;18.040;2023-03-21T15:07:05;3.30;;;0.40;;
12129;SDS011;6128;59.340;18.040;2023-03-21T15:09:33;5.27;;;1.50;;
12129;SDS011;6128;59.340;18.040;2023-03-21T15:12:00;3.13;;;0.40;;
12129;SDS011;6128;59.340;18.040;2023-03-21T15:14:34;4.97;;;0.80;;
12129;SDS011;6128;59.340;18.040;2023-03-21T15:17:04;5.10;;;0.53;;
12129;SDS011;6128;59.340;18.040;2023-03-21T15:19:34;5.10;;;0.93;;
12129;SDS011;6128;59.340;18.040;2023-03-21T15:22:05;9.20;;;1.13;;
12129;SDS011;6128;59.340;18.040;2023-03-21T15:24:39;2.17;;;0.40;;